Terminal Aerodrome Forecast
Issued by NWS Austin/San Antonio, TX

Home | Current Version | Previous Version | Text Only | Print | Product List | Glossary On
Versions: 1 2 3 4 5 6 7 8 9 10 11 12 13
000
FTUS44 KEWX 181721
TAFAUS
TAF
KAUS 181721Z 1818/1924 16006KT P6SM FEW250
     FM191200 00000KT P6SM SCT015
     FM191500 13006KT P6SM BKN025
     FM191900 13007KT P6SM SCT040=

USA.gov is the U.S. government's official web portal to all federal, state and local government web resources and services.